sensor_id;sensor_type;location;lat;lon;timestamp;pressure;altitude;pressure_sealevel;temperature;humidity
65685;BME280;52405;50.844;-1.062;2023-03-07T00:01:53;100318.59;;;8.77;64.13
65685;BME280;52405;50.844;-1.062;2023-03-07T00:04:18;100315.22;;;8.80;63.69
65685;BME280;52405;50.844;-1.062;2023-03-07T00:06:46;100337.97;;;8.88;63.97
65685;BME280;52405;50.844;-1.062;2023-03-07T00:09:11;100306.41;;;8.75;63.45
65685;BME280;52405;50.844;-1.062;2023-03-07T00:11:36;100309.03;;;8.76;63.29
65685;BME280;52405;50.844;-1.062;2023-03-07T00:14:07;100314.34;;;8.79;63.26
65685;BME280;52405;50.844;-1.062;2023-03-07T00:16:35;100281.56;;;8.56;63.37
65685;BME280;52405;50.844;-1.062;2023-03-07T00:19:03;100313.41;;;8.77;62.50
65685;BME280;52405;50.844;-1.062;2023-03-07T00:21:29;100313.34;;;8.76;62.87
65685;BME280;52405;50.844;-1.062;2023-03-07T00:23:56;100320.34;;;8.78;62.29
65685;BME280;52405;50.844;-1.062;2023-03-07T00:26:25;100320.31;;;8.77;62.29
65685;BME280;52405;50.844;-1.062;2023-03-07T00:28:52;100274.50;;;8.52;62.28
65685;BME280;52405;50.844;-1.062;2023-03-07T00:31:19;100284.03;;;8.53;62.51
65685;BME280;52405;50.844;-1.062;2023-03-07T00:33:48;100314.06;;;8.72;61.70
65685;BME280;52405;50.844;-1.062;2023-03-07T00:36:15;100314.06;;;8.72;62.51
65685;BME280;52405;50.844;-1.062;2023-03-07T00:38:45;100286.78;;;8.57;62.28
65685;BME280;52405;50.844;-1.062;2023-03-07T00:41:13;100301.06;;;8.70;61.45
65685;BME280;52405;50.844;-1.062;2023-03-07T00:43:39;100283.53;;;8.63;61.93
65685;BME280;52405;50.844;-1.062;2023-03-07T00:46:05;100271.13;;;8.54;61.77
65685;BME280;52405;50.844;-1.062;2023-03-07T00:48:37;100265.81;;;8.49;62.18
65685;BME280;52405;50.844;-1.062;2023-03-07T00:51:04;100292.38;;;8.68;61.97
65685;BME280;52405;50.844;-1.062;2023-03-07T00:53:30;100289.72;;;8.66;61.55
65685;BME280;52405;50.844;-1.062;2023-03-07T00:56:04;100285.31;;;8.64;61.48
65685;BME280;52405;50.844;-1.062;2023-03-07T00:58:35;100268.63;;;8.56;61.67
65685;BME280;52405;50.844;-1.062;2023-03-07T01:01:04;100281.94;;;8.66;62.76
65685;BME280;52405;50.844;-1.062;2023-03-07T01:03:33;100251.09;;;8.48;61.73
65685;BME280;52405;50.844;-1.062;2023-03-07T01:06:08;100276.59;;;8.62;61.88
65685;BME280;52405;50.844;-1.062;2023-03-07T01:08:34;100272.41;;;8.65;62.74
65685;BME280;52405;50.844;-1.062;2023-03-07T01:11:02;100248.63;;;8.52;62.55
65685;BME280;52405;50.844;-1.062;2023-03-07T01:13:31;100274.97;;;8.64;62.67
65685;BME280;52405;50.844;-1.062;2023-03-07T01:16:19;100255.84;;;8.60;63.06
65685;BME280;52405;50.844;-1.062;2023-03-07T01:18:49;100260.97;;;8.59;63.14
65685;BME280;52405;50.844;-1.062;2023-03-07T01:21:17;100261.06;;;8.62;62.63
65685;BME280;52405;50.844;-1.062;2023-03-07T01:23:43;100264.50;;;8.61;62.73
65685;BME280;52405;50.844;-1.062;2023-03-07T01:26:13;100240.88;;;8.52;62.35
65685;BME280;52405;50.844;-1.062;2023-03-07T01:28:39;100246.97;;;8.54;62.13
65685;BME280;52405;50.844;-1.062;2023-03-07T01:31:05;100248.09;;;8.60;62.62
65685;BME280;52405;50.844;-1.062;2023-03-07T01:33:30;100241.13;;;8.59;62.18
65685;BME280;52405;50.844;-1.062;2023-03-07T01:35:56;100239.34;;;8.58;62.20
65685;BME280;52405;50.844;-1.062;2023-03-07T01:38:21;100213.00;;;8.44;61.82
65685;BME280;52405;50.844;-1.062;2023-03-07T01:40:47;100219.31;;;8.53;62.25
65685;BME280;52405;50.844;-1.062;2023-03-07T01:48:42;100213.13;;;8.47;61.73
65685;BME280;52405;50.844;-1.062;2023-03-07T01:51:10;100228.97;;;8.57;62.22
65685;BME280;52405;50.844;-1.062;2023-03-07T01:53:36;100211.56;;;8.53;61.60
65685;BME280;52405;50.844;-1.062;2023-03-07T01:56:02;100216.72;;;8.53;62.22
65685;BME280;52405;50.844;-1.062;2023-03-07T01:58:30;100134.03;;;8.07;61.39
65685;BME280;52405;50.844;-1.062;2023-03-07T02:00:55;100162.28;;;8.25;61.86
65685;BME280;52405;50.844;-1.062;2023-03-07T02:04:09;100208.22;;;8.55;62.04
65685;BME280;52405;50.844;-1.062;2023-03-07T02:06:18;100188.78;;;8.42;61.50
65685;BME280;52405;50.844;-1.062;2023-03-07T02:08:48;100201.25;;;8.54;62.33
65685;BME280;52405;50.844;-1.062;2023-03-07T02:11:15;100188.16;;;8.49;61.85
65685;BME280;52405;50.844;-1.062;2023-03-07T02:13:40;100189.16;;;8.53;61.56
65685;BME280;52405;50.844;-1.062;2023-03-07T02:16:09;100186.50;;;8.52;61.52
65685;BME280;52405;50.844;-1.062;2023-03-07T02:18:40;100178.63;;;8.48;61.37
65685;BME280;52405;50.844;-1.062;2023-03-07T02:28:54;100167.22;;;8.43;61.31
65685;BME280;52405;50.844;-1.062;2023-03-07T02:31:19;100167.28;;;8.45;61.78
65685;BME280;52405;50.844;-1.062;2023-03-07T02:33:45;100156.00;;;8.43;61.20
65685;BME280;52405;50.844;-1.062;2023-03-07T02:36:14;100174.31;;;8.47;62.07
65685;BME280;52405;50.844;-1.062;2023-03-07T02:38:43;100169.94;;;8.46;61.72
65685;BME280;52405;50.844;-1.062;2023-03-07T02:41:15;100164.75;;;8.46;61.34
65685;BME280;52405;50.844;-1.062;2023-03-07T02:43:48;100163.88;;;8.46;61.64
65685;BME280;52405;50.844;-1.062;2023-03-07T02:46:13;100149.97;;;8.42;61.38
65685;BME280;52405;50.844;-1.062;2023-03-07T02:48:41;100152.69;;;8.47;62.21
65685;BME280;52405;50.844;-1.062;2023-03-07T02:51:09;100159.66;;;8.48;62.05
65685;BME280;52405;50.844;-1.062;2023-03-07T02:53:39;100145.50;;;8.40;62.37
65685;BME280;52405;50.844;-1.062;2023-03-07T02:56:05;100144.78;;;8.42;61.29
65685;BME280;52405;50.844;-1.062;2023-03-07T02:58:33;100150.16;;;8.48;62.04
65685;BME280;52405;50.844;-1.062;2023-03-07T03:01:01;100139.63;;;8.42;61.71
65685;BME280;52405;50.844;-1.062;2023-03-07T03:03:29;100139.66;;;8.44;61.36
65685;BME280;52405;50.844;-1.062;2023-03-07T03:05:54;100118.38;;;8.28;61.60
65685;BME280;52405;50.844;-1.062;2023-03-07T03:08:22;100099.19;;;8.22;61.85
65685;BME280;52405;50.844;-1.062;2023-03-07T03:10:52;100132.84;;;8.46;62.10
65685;BME280;52405;50.844;-1.062;2023-03-07T03:13:20;100085.34;;;8.20;61.44
65685;BME280;52405;50.844;-1.062;2023-03-07T03:15:46;100116.16;;;8.39;61.93
65685;BME280;52405;50.844;-1.062;2023-03-07T03:18:11;100127.72;;;8.47;61.81
65685;BME280;52405;50.844;-1.062;2023-03-07T03:20:41;100129.47;;;8.48;61.73
65685;BME280;52405;50.844;-1.062;2023-03-07T03:23:07;100092.69;;;8.33;61.24
65685;BME280;52405;50.844;-1.062;2023-03-07T03:25:32;100080.25;;;8.23;61.91
65685;BME280;52405;50.844;-1.062;2023-03-07T03:27:57;100070.50;;;8.16;61.69
65685;BME280;52405;50.844;-1.062;2023-03-07T03:30:26;100111.88;;;8.40;61.70
65685;BME280;52405;50.844;-1.062;2023-03-07T03:32:52;100106.66;;;8.38;61.49
65685;BME280;52405;50.844;-1.062;2023-03-07T03:35:20;100104.84;;;8.36;61.55
65685;BME280;52405;50.844;-1.062;2023-03-07T03:37:45;100111.91;;;8.41;61.07
65685;BME280;52405;50.844;-1.062;2023-03-07T03:40:17;100109.34;;;8.41;61.07
65685;BME280;52405;50.844;-1.062;2023-03-07T03:42:43;100110.19;;;8.40;62.07
65685;BME280;52405;50.844;-1.062;2023-03-07T03:45:09;100095.34;;;8.36;62.11
65685;BME280;52405;50.844;-1.062;2023-03-07T03:47:37;100079.63;;;8.30;62.07
65685;BME280;52405;50.844;-1.062;2023-03-07T03:50:03;100096.34;;;8.40;62.42
65685;BME280;52405;50.844;-1.062;2023-03-07T03:52:28;100056.03;;;8.21;61.59
65685;BME280;52405;50.844;-1.062;2023-03-07T03:54:56;100084.19;;;8.37;62.08
65685;BME280;52405;50.844;-1.062;2023-03-07T03:57:26;100081.66;;;8.39;62.44
65685;BME280;52405;50.844;-1.062;2023-03-07T03:59:54;100063.25;;;8.29;61.95
65685;BME280;52405;50.844;-1.062;2023-03-07T04:02:19;100073.84;;;8.37;62.42
65685;BME280;52405;50.844;-1.062;2023-03-07T04:04:46;100034.16;;;8.11;61.97
65685;BME280;52405;50.844;-1.062;2023-03-07T04:07:11;100080.78;;;8.38;61.36
65685;BME280;52405;50.844;-1.062;2023-03-07T04:09:39;100033.28;;;8.10;61.98
65685;BME280;52405;50.844;-1.062;2023-03-07T04:12:04;100045.81;;;8.24;61.14
65685;BME280;52405;50.844;-1.062;2023-03-07T04:14:30;100022.88;;;8.09;61.34
65685;BME280;52405;50.844;-1.062;2023-03-07T04:16:55;100073.06;;;8.40;61.31
65685;BME280;52405;50.844;-1.062;2023-03-07T04:19:21;100073.97;;;8.40;61.82
65685;BME280;52405;50.844;-1.062;2023-03-07T04:21:47;100018.63;;;8.11;61.28
65685;BME280;52405;50.844;-1.062;2023-03-07T04:24:14;100016.09;;;8.13;61.68
65685;BME280;52405;50.844;-1.062;2023-03-07T04:26:42;100029.13;;;8.16;61.33
65685;BME280;52405;50.844;-1.062;2023-03-07T04:29:08;100048.63;;;8.32;61.01
65685;BME280;52405;50.844;-1.062;2023-03-07T04:31:36;100059.25;;;8.39;61.36
65685;BME280;52405;50.844;-1.062;2023-03-07T04:34:01;100067.16;;;8.42;61.23
65685;BME280;52405;50.844;-1.062;2023-03-07T04:36:27;100011.88;;;8.15;61.12
65685;BME280;52405;50.844;-1.062;2023-03-07T04:38:52;100060.31;;;8.44;60.65
65685;BME280;52405;50.844;-1.062;2023-03-07T04:41:21;100026.75;;;8.22;60.20
65685;BME280;52405;50.844;-1.062;2023-03-07T04:43:47;100049.81;;;8.41;60.29
65685;BME280;52405;50.844;-1.062;2023-03-07T04:46:14;100054.34;;;8.47;60.77
65685;BME280;52405;50.844;-1.062;2023-03-07T04:48:39;100067.34;;;8.48;60.62
65685;BME280;52405;50.844;-1.062;2023-03-07T04:51:10;100040.09;;;8.34;60.48
65685;BME280;52405;50.844;-1.062;2023-03-07T04:53:35;100058.78;;;8.49;60.63
65685;BME280;52405;50.844;-1.062;2023-03-07T04:56:05;100057.88;;;8.49;60.82
65685;BME280;52405;50.844;-1.062;2023-03-07T04:58:32;100059.59;;;8.48;60.22
65685;BME280;52405;50.844;-1.062;2023-03-07T05:00:59;100056.94;;;8.47;61.26
65685;BME280;52405;50.844;-1.062;2023-03-07T05:03:25;100003.25;;;8.16;61.39
65685;BME280;52405;50.844;-1.062;2023-03-07T05:05:51;100055.16;;;8.44;60.89
65685;BME280;52405;50.844;-1.062;2023-03-07T05:08:17;100039.34;;;8.37;60.77
65685;BME280;52405;50.844;-1.062;2023-03-07T05:10:43;100037.50;;;8.34;61.63
65685;BME280;52405;50.844;-1.062;2023-03-07T05:13:12;100016.44;;;8.23;61.71
65685;BME280;52405;50.844;-1.062;2023-03-07T05:15:40;100047.31;;;8.43;61.64
65685;BME280;52405;50.844;-1.062;2023-03-07T05:18:05;100045.72;;;8.46;61.74
65685;BME280;52405;50.844;-1.062;2023-03-07T05:20:31;100030.47;;;8.30;61.62
65685;BME280;52405;50.844;-1.062;2023-03-07T05:22:57;100009.41;;;8.19;61.55
65685;BME280;52405;50.844;-1.062;2023-03-07T05:25:28;100048.03;;;8.39;62.33
65685;BME280;52405;50.844;-1.062;2023-03-07T05:27:53;100040.06;;;8.33;62.14
65685;BME280;52405;50.844;-1.062;2023-03-07T05:30:19;100045.38;;;8.37;61.82
65685;BME280;52405;50.844;-1.062;2023-03-07T05:32:48;100055.25;;;8.47;61.34
65685;BME280;52405;50.844;-1.062;2023-03-07T05:35:15;100052.66;;;8.47;61.70
65685;BME280;52405;50.844;-1.062;2023-03-07T05:37:43;100040.94;;;8.33;62.26
65685;BME280;52405;50.844;-1.062;2023-03-07T05:40:09;100017.22;;;8.21;61.96
65685;BME280;52405;50.844;-1.062;2023-03-07T05:42:37;100047.44;;;8.46;61.66
65685;BME280;52405;50.844;-1.062;2023-03-07T05:45:04;100026.16;;;8.29;62.50
65685;BME280;52405;50.844;-1.062;2023-03-07T05:47:30;100033.31;;;8.38;61.91
65685;BME280;52405;50.844;-1.062;2023-03-07T05:49:58;100020.84;;;8.26;62.79
65685;BME280;52405;50.844;-1.062;2023-03-07T05:52:24;100055.16;;;8.44;62.23
65685;BME280;52405;50.844;-1.062;2023-03-07T05:54:50;99982.19;;;8.05;62.46
65685;BME280;52405;50.844;-1.062;2023-03-07T05:57:15;100028.63;;;8.26;62.45
65685;BME280;52405;50.844;-1.062;2023-03-07T05:59:40;100037.50;;;8.34;62.35
65685;BME280;52405;50.844;-1.062;2023-03-07T06:02:10;100050.78;;;8.43;62.36
65685;BME280;52405;50.844;-1.062;2023-03-07T06:04:38;99989.03;;;8.03;62.54
65685;BME280;52405;50.844;-1.062;2023-03-07T06:07:04;100038.41;;;8.35;62.64
65685;BME280;52405;50.844;-1.062;2023-03-07T06:09:29;100029.50;;;8.26;62.90
65685;BME280;52405;50.844;-1.062;2023-03-07T06:11:55;100004.41;;;7.98;63.25
65685;BME280;52405;50.844;-1.062;2023-03-07T06:14:23;100022.94;;;8.10;63.21
65685;BME280;52405;50.844;-1.062;2023-03-07T06:16:48;100027.47;;;8.18;63.96
65685;BME280;52405;50.844;-1.062;2023-03-07T06:19:16;100028.13;;;8.12;63.60
65685;BME280;52405;50.844;-1.062;2023-03-07T06:21:42;100059.72;;;8.27;63.92
65685;BME280;52405;50.844;-1.062;2023-03-07T06:24:08;100063.13;;;8.26;63.62
65685;BME280;52405;50.844;-1.062;2023-03-07T06:26:36;100066.59;;;8.27;64.46
65685;BME280;52405;50.844;-1.062;2023-03-07T06:29:04;100055.84;;;8.15;64.67
65685;BME280;52405;50.844;-1.062;2023-03-07T06:31:34;100018.09;;;7.96;64.48
65685;BME280;52405;50.844;-1.062;2023-03-07T06:33:59;100062.44;;;8.06;64.22
65685;BME280;52405;50.844;-1.062;2023-03-07T06:36:25;100063.63;;;7.92;64.14
65685;BME280;52405;50.844;-1.062;2023-03-07T06:38:55;100083.91;;;7.80;64.04
65685;BME280;52405;50.844;-1.062;2023-03-07T06:41:21;100066.44;;;7.50;63.42
65685;BME280;52405;50.844;-1.062;2023-03-07T06:43:51;100067.22;;;7.25;64.12
65685;BME280;52405;50.844;-1.062;2023-03-07T06:46:22;100080.50;;;7.13;64.11
65685;BME280;52405;50.844;-1.062;2023-03-07T06:48:47;100058.53;;;6.79;64.86
65685;BME280;52405;50.844;-1.062;2023-03-07T06:51:15;100098.31;;;6.84;64.26
65685;BME280;52405;50.844;-1.062;2023-03-07T06:53:42;100075.78;;;6.59;65.17
65685;BME280;52405;50.844;-1.062;2023-03-07T06:56:08;100061.06;;;6.35;65.03
65685;BME280;52405;50.844;-1.062;2023-03-07T06:58:33;100077.16;;;6.30;65.79
65685;BME280;52405;50.844;-1.062;2023-03-07T07:00:58;100098.56;;;6.27;66.00
65685;BME280;52405;50.844;-1.062;2023-03-07T07:03:24;100040.84;;;5.85;65.57
65685;BME280;52405;50.844;-1.062;2023-03-07T07:05:52;100044.63;;;5.73;65.52
65685;BME280;52405;50.844;-1.062;2023-03-07T07:08:20;100096.41;;;5.97;65.60
65685;BME280;52405;50.844;-1.062;2023-03-07T07:10:45;100049.66;;;5.70;66.16
65685;BME280;52405;50.844;-1.062;2023-03-07T07:13:13;100093.66;;;5.94;66.13
65685;BME280;52405;50.844;-1.062;2023-03-07T07:15:39;100099.50;;;5.90;66.56
65685;BME280;52405;50.844;-1.062;2023-03-07T07:18:04;100030.47;;;5.44;66.24
65685;BME280;52405;50.844;-1.062;2023-03-07T07:20:30;100020.75;;;5.38;66.46
65685;BME280;52405;50.844;-1.062;2023-03-07T07:22:55;100045.56;;;5.56;66.33
65685;BME280;52405;50.844;-1.062;2023-03-07T07:25:23;100089.66;;;5.82;66.15
65685;BME280;52405;50.844;-1.062;2023-03-07T07:27:51;100081.66;;;5.75;66.52
65685;BME280;52405;50.844;-1.062;2023-03-07T07:30:16;100099.97;;;5.82;66.44
65685;BME280;52405;50.844;-1.062;2023-03-07T07:32:42;100119.69;;;5.81;66.89
65685;BME280;52405;50.844;-1.062;2023-03-07T07:35:10;100123.13;;;5.62;67.51
65685;BME280;52405;50.844;-1.062;2023-03-07T07:37:35;100090.59;;;5.27;67.49
65685;BME280;52405;50.844;-1.062;2023-03-07T07:40:04;100119.00;;;5.28;67.20
65685;BME280;52405;50.844;-1.062;2023-03-07T07:42:30;100094.09;;;5.09;67.06
65685;BME280;52405;50.844;-1.062;2023-03-07T07:44:56;100094.81;;;5.07;67.89
65685;BME280;52405;50.844;-1.062;2023-03-07T07:47:24;100062.09;;;4.86;67.98
65685;BME280;52405;50.844;-1.062;2023-03-07T07:49:49;100047.84;;;4.75;67.93
65685;BME280;52405;50.844;-1.062;2023-03-07T07:52:15;100117.88;;;5.23;68.27
65685;BME280;52405;50.844;-1.062;2023-03-07T07:54:40;100093.41;;;5.13;68.91
65685;BME280;52405;50.844;-1.062;2023-03-07T07:57:08;100101.84;;;5.29;68.34
65685;BME280;52405;50.844;-1.062;2023-03-07T07:59:33;100127.66;;;5.48;67.63
65685;BME280;52405;50.844;-1.062;2023-03-07T08:01:59;100137.63;;;5.60;68.43
65685;BME280;52405;50.844;-1.062;2023-03-07T08:04:25;100122.94;;;5.57;68.40
65685;BME280;52405;50.844;-1.062;2023-03-07T08:06:54;100103.44;;;5.45;67.71
65685;BME280;52405;50.844;-1.062;2023-03-07T08:09:19;100087.50;;;5.34;66.70
65685;BME280;52405;50.844;-1.062;2023-03-07T08:11:44;100082.88;;;5.27;67.54
65685;BME280;52405;50.844;-1.062;2023-03-07T08:14:10;100114.34;;;5.39;67.37
65685;BME280;52405;50.844;-1.062;2023-03-07T08:16:35;100130.94;;;5.46;67.75
65685;BME280;52405;50.844;-1.062;2023-03-07T08:19:01;100149.63;;;5.59;68.04
65685;BME280;52405;50.844;-1.062;2023-03-07T08:21:27;100081.56;;;5.17;67.73
65685;BME280;52405;50.844;-1.062;2023-03-07T08:23:55;100118.75;;;5.41;67.83
65685;BME280;52405;50.844;-1.062;2023-03-07T08:26:21;100155.53;;;5.57;66.69
65685;BME280;52405;50.844;-1.062;2023-03-07T08:28:46;100117.94;;;5.43;67.67
65685;BME280;52405;50.844;-1.062;2023-03-07T08:31:21;100131.94;;;5.67;67.94
65685;BME280;52405;50.844;-1.062;2023-03-07T08:33:53;100112.28;;;5.69;68.35
65685;BME280;52405;50.844;-1.062;2023-03-07T08:36:21;100132.09;;;5.90;67.19
65685;BME280;52405;50.844;-1.062;2023-03-07T08:38:50;100118.84;;;6.00;66.99
65685;BME280;52405;50.844;-1.062;2023-03-07T08:41:17;100084.44;;;5.80;67.30
65685;BME280;52405;50.844;-1.062;2023-03-07T08:43:45;100122.44;;;6.04;66.57
65685;BME280;52405;50.844;-1.062;2023-03-07T08:46:11;100110.00;;;5.95;67.37
65685;BME280;52405;50.844;-1.062;2023-03-07T08:48:37;100133.03;;;6.10;66.74
65685;BME280;52405;50.844;-1.062;2023-03-07T08:51:06;100138.56;;;6.19;66.64
65685;BME280;52405;50.844;-1.062;2023-03-07T08:53:32;100129.56;;;6.29;67.41
65685;BME280;52405;50.844;-1.062;2023-03-07T08:55:58;100089.19;;;6.10;66.27
65685;BME280;52405;50.844;-1.062;2023-03-07T08:58:23;100141.16;;;6.39;66.77
65685;BME280;52405;50.844;-1.062;2023-03-07T09:00:51;100113.41;;;6.33;65.31
65685;BME280;52405;50.844;-1.062;2023-03-07T09:03:16;100130.97;;;6.42;66.42
65685;BME280;52405;50.844;-1.062;2023-03-07T09:05:47;100106.53;;;6.33;65.86
65685;BME280;52405;50.844;-1.062;2023-03-07T09:08:12;100083.19;;;6.30;65.89
65685;BME280;52405;50.844;-1.062;2023-03-07T09:10:40;100044.69;;;6.14;65.43
65685;BME280;52405;50.844;-1.062;2023-03-07T09:13:06;100083.91;;;6.47;65.27
65685;BME280;52405;50.844;-1.062;2023-03-07T09:15:37;100092.16;;;6.60;64.81
65685;BME280;52405;50.844;-1.062;2023-03-07T09:18:10;100135.28;;;6.83;64.27
65685;BME280;52405;50.844;-1.062;2023-03-07T09:20:39;100127.59;;;6.85;63.65
65685;BME280;52405;50.844;-1.062;2023-03-07T09:23:06;100087.88;;;6.60;63.50
65685;BME280;52405;50.844;-1.062;2023-03-07T09:25:34;100130.56;;;6.94;64.01
65685;BME280;52405;50.844;-1.062;2023-03-07T09:28:01;100128.47;;;7.06;63.65
65685;BME280;52405;50.844;-1.062;2023-03-07T09:30:26;100125.31;;;7.13;63.76
65685;BME280;52405;50.844;-1.062;2023-03-07T09:32:53;100086.03;;;7.00;62.89
65685;BME280;52405;50.844;-1.062;2023-03-07T09:35:18;100077.97;;;6.92;62.38
65685;BME280;52405;50.844;-1.062;2023-03-07T09:37:44;100127.25;;;7.19;63.16
65685;BME280;52405;50.844;-1.062;2023-03-07T09:40:21;100111.41;;;7.10;62.63
65685;BME280;52405;50.844;-1.062;2023-03-07T09:45:42;100137.69;;;7.22;63.31
65685;BME280;52405;50.844;-1.062;2023-03-07T09:50:52;100113.84;;;7.07;62.40
65685;BME280;52405;50.844;-1.062;2023-03-07T09:53:38;100143.47;;;7.15;62.50
65685;BME280;52405;50.844;-1.062;2023-03-07T09:56:12;100110.25;;;7.03;62.48
65685;BME280;52405;50.844;-1.062;2023-03-07T09:58:45;100095.97;;;6.90;61.46
65685;BME280;52405;50.844;-1.062;2023-03-07T10:01:12;100140.63;;;7.09;60.74
65685;BME280;52405;50.844;-1.062;2023-03-07T10:08:49;100134.28;;;7.01;61.63
65685;BME280;52405;50.844;-1.062;2023-03-07T10:22:04;100131.06;;;6.85;61.81
65685;BME280;52405;50.844;-1.062;2023-03-07T10:27:26;100147.03;;;6.98;61.86
65685;BME280;52405;50.844;-1.062;2023-03-07T10:29:54;100145.69;;;7.06;62.03
65685;BME280;52405;50.844;-1.062;2023-03-07T10:42:52;100165.53;;;7.29;62.83
65685;BME280;52405;50.844;-1.062;2023-03-07T10:45:18;100158.56;;;7.27;63.09
65685;BME280;52405;50.844;-1.062;2023-03-07T10:47:46;100163.72;;;7.27;62.54
65685;BME280;52405;50.844;-1.062;2023-03-07T10:50:32;100177.72;;;7.32;62.75
65685;BME280;52405;50.844;-1.062;2023-03-07T10:53:02;100178.34;;;7.26;62.25
65685;BME280;52405;50.844;-1.062;2023-03-07T10:55:38;100182.31;;;7.18;62.76
65685;BME280;52405;50.844;-1.062;2023-03-07T11:00:45;100180.34;;;7.12;63.13
65685;BME280;52405;50.844;-1.062;2023-03-07T11:03:46;100188.03;;;7.11;64.49
65685;BME280;52405;50.844;-1.062;2023-03-07T11:08:49;100197.00;;;7.19;63.91
65685;BME280;52405;50.844;-1.062;2023-03-07T11:11:21;100190.13;;;7.20;64.41
65685;BME280;52405;50.844;-1.062;2023-03-07T11:14:10;100206.63;;;7.23;63.92
65685;BME280;52405;50.844;-1.062;2023-03-07T11:16:48;100191.94;;;7.22;63.72
65685;BME280;52405;50.844;-1.062;2023-03-07T11:19:31;100193.72;;;7.23;63.45
65685;BME280;52405;50.844;-1.062;2023-03-07T11:21:58;100198.81;;;7.22;64.12
65685;BME280;52405;50.844;-1.062;2023-03-07T11:24:27;100160.03;;;6.99;63.79
65685;BME280;52405;50.844;-1.062;2023-03-07T11:26:57;100166.81;;;6.97;63.49
65685;BME280;52405;50.844;-1.062;2023-03-07T11:29:23;100195.34;;;7.21;64.88
65685;BME280;52405;50.844;-1.062;2023-03-07T11:32:19;100177.97;;;7.17;64.02
65685;BME280;52405;50.844;-1.062;2023-03-07T11:34:56;100205.34;;;7.34;64.09
65685;BME280;52405;50.844;-1.062;2023-03-07T11:40:28;100154.91;;;7.22;63.82
65685;BME280;52405;50.844;-1.062;2023-03-07T11:43:19;100199.25;;;7.55;63.68
65685;BME280;52405;50.844;-1.062;2023-03-07T11:54:04;100206.69;;;7.91;63.28
65685;BME280;52405;50.844;-1.062;2023-03-07T11:56:35;100198.81;;;7.88;62.47
65685;BME280;52405;50.844;-1.062;2023-03-07T12:02:41;100147.34;;;7.71;62.08
65685;BME280;52405;50.844;-1.062;2023-03-07T12:10:44;100185.31;;;8.19;62.93
65685;BME280;52405;50.844;-1.062;2023-03-07T12:13:29;100217.03;;;8.38;62.70
65685;BME280;52405;50.844;-1.062;2023-03-07T12:27:07;100220.38;;;8.58;61.60
65685;BME280;52405;50.844;-1.062;2023-03-07T12:29:40;100203.91;;;8.56;61.96
65685;BME280;52405;50.844;-1.062;2023-03-07T12:32:17;100209.53;;;8.68;62.62
65685;BME280;52405;50.844;-1.062;2023-03-07T12:37:22;100213.69;;;8.88;62.44
65685;BME280;52405;50.844;-1.062;2023-03-07T12:39:51;100229.72;;;9.04;62.31
65685;BME280;52405;50.844;-1.062;2023-03-07T12:45:10;100222.50;;;9.19;61.98
65685;BME280;52405;50.844;-1.062;2023-03-07T12:48:11;100224.44;;;9.26;61.19
65685;BME280;52405;50.844;-1.062;2023-03-07T12:51:03;100229.03;;;9.35;61.83
65685;BME280;52405;50.844;-1.062;2023-03-07T13:01:31;100229.69;;;9.55;60.94
65685;BME280;52405;50.844;-1.062;2023-03-07T13:06:29;100223.03;;;9.63;61.27
65685;BME280;52405;50.844;-1.062;2023-03-07T13:08:57;100197.00;;;9.60;61.29
65685;BME280;52405;50.844;-1.062;2023-03-07T13:11:32;100201.97;;;9.81;61.39
65685;BME280;52405;50.844;-1.062;2023-03-07T13:14:00;100196.00;;;9.84;61.54
65685;BME280;52405;50.844;-1.062;2023-03-07T13:16:52;100215.25;;;9.92;59.83
65685;BME280;52405;50.844;-1.062;2023-03-07T13:22:03;100219.69;;;9.68;60.71
65685;BME280;52405;50.844;-1.062;2023-03-07T13:24:49;100193.94;;;9.45;60.40
65685;BME280;52405;50.844;-1.062;2023-03-07T13:27:29;100218.44;;;9.55;60.11
65685;BME280;52405;50.844;-1.062;2023-03-07T13:41:11;100198.84;;;9.36;59.74
65685;BME280;52405;50.844;-1.062;2023-03-07T13:48:57;100212.50;;;9.59;59.37
65685;BME280;52405;50.844;-1.062;2023-03-07T13:51:22;100198.50;;;9.54;58.91
65685;BME280;52405;50.844;-1.062;2023-03-07T13:53:55;100189.56;;;9.71;59.63
65685;BME280;52405;50.844;-1.062;2023-03-07T13:56:27;100204.09;;;9.95;59.61
65685;BME280;52405;50.844;-1.062;2023-03-07T14:01:30;100203.78;;;10.14;58.89
65685;BME280;52405;50.844;-1.062;2023-03-07T14:09:25;100187.19;;;10.08;56.57
65685;BME280;52405;50.844;-1.062;2023-03-07T14:14:48;100205.63;;;10.17;55.35
65685;BME280;52405;50.844;-1.062;2023-03-07T14:19:52;100213.41;;;9.88;55.39
65685;BME280;52405;50.844;-1.062;2023-03-07T14:25:17;100225.88;;;9.71;56.27
65685;BME280;52405;50.844;-1.062;2023-03-07T14:27:49;100214.34;;;9.61;55.61
65685;BME280;52405;50.844;-1.062;2023-03-07T14:30:17;100172.94;;;9.37;56.22
65685;BME280;52405;50.844;-1.062;2023-03-07T14:32:43;100233.47;;;9.67;56.14
65685;BME280;52405;50.844;-1.062;2023-03-07T14:35:10;100224.09;;;9.70;55.68
65685;BME280;52405;50.844;-1.062;2023-03-07T14:37:40;100225.81;;;9.70;55.49
65685;BME280;52405;50.844;-1.062;2023-03-07T14:40:32;100225.56;;;9.62;54.44
65685;BME280;52405;50.844;-1.062;2023-03-07T14:46:01;100218.28;;;9.50;54.92
65685;BME280;52405;50.844;-1.062;2023-03-07T14:51:30;100227.41;;;9.39;54.84
65685;BME280;52405;50.844;-1.062;2023-03-07T14:53:56;100212.19;;;9.22;54.88
65685;BME280;52405;50.844;-1.062;2023-03-07T14:56:29;100219.91;;;9.19;53.88
65685;BME280;52405;50.844;-1.062;2023-03-07T14:59:00;100226.00;;;9.21;54.72
65685;BME280;52405;50.844;-1.062;2023-03-07T15:01:31;100221.75;;;9.23;54.33
65685;BME280;52405;50.844;-1.062;2023-03-07T15:04:02;100219.97;;;9.22;55.16
65685;BME280;52405;50.844;-1.062;2023-03-07T15:06:41;100203.56;;;9.22;55.21
65685;BME280;52405;50.844;-1.062;2023-03-07T15:09:13;100178.44;;;9.19;54.56
65685;BME280;52405;50.844;-1.062;2023-03-07T15:14:20;100176.19;;;9.30;53.73
65685;BME280;52405;50.844;-1.062;2023-03-07T15:16:49;100209.56;;;9.48;53.18
65685;BME280;52405;50.844;-1.062;2023-03-07T15:19:20;100207.78;;;9.45;52.98
65685;BME280;52405;50.844;-1.062;2023-03-07T15:21:56;100199.59;;;9.33;53.52
65685;BME280;52405;50.844;-1.062;2023-03-07T15:26:54;100148.75;;;9.10;54.05